Senneville, Canada
Current Conditions -  °F | °C
As of 2:00 AM on Sunday 28 Dec 2014 (Local Time) from CYUL Reporting Station
Overcast Overcast  
Wind Chill: 39°   Ceiling: 800
Heat Index: 46°   Visibility: 15mi
Dew Point: 41°   Wind: 18mph
Humidity: 81%   Direction: 230°SW
Pressure: 29.7"   Gusts: 25mph
Location:  45.43°N, 73.97°W
Report Text: CYUL 280700Z 23016G22KT 15SM OVC008 08/05 A2970 RMK SC8 SLP057
Loading
Personal Weather Stations






























Interactive Weather Map New forecast layout! Learn more

10-Day Weather Forecast

Advertisements
Track Severe Weather on mobile